Time;durP1;ratioP1;P1;durP2;ratioP2;P2;SDS_P1;SDS_P2;PMS_P1;PMS_P2;Temp;Humidity;BMP_temperature;BMP_pressure;BME280_temperature;BME280_humidity;BME280_pressure;Samples;Min_cycle;Max_cycle;Signal;HPM_P1;HPM_P2
2021/12/02 00:00:45;;;;;;;2.58;2.37;;;;;;;21.66;32.81;98135.83;1887926;73;28146;-56
2021/12/02 00:03:36;;;;;;;2.20;2.10;;;;;;;21.65;32.82;98126.83;1883359;75;28258;-56
2021/12/02 00:06:25;;;;;;;2.30;2.20;;;;;;;21.64;32.84;98121.06;1879653;75;28161;-55
2021/12/02 00:09:14;;;;;;;2.30;2.20;;;;;;;21.65;32.84;98115.89;1890825;75;28634;-58
2021/12/02 00:12:04;;;;;;;2.50;2.30;;;;;;;21.65;32.82;98108.23;1890940;75;28068;-57
2021/12/02 00:14:53;;;;;;;2.40;2.30;;;;;;;21.65;32.85;98106.86;1893437;75;28035;-55
2021/12/02 00:17:51;;;;;;;2.25;2.15;;;;;;;21.65;32.83;98105.50;1881681;75;28190;-57
2021/12/02 00:23:50;;;;;;;2.45;2.35;;;;;;;21.63;32.84;98087.18;1881092;75;28036;-57
2021/12/02 00:26:40;;;;;;;2.23;2.13;;;;;;;21.59;32.88;98086.86;1877295;75;28141;-59
2021/12/02 00:29:30;;;;;;;2.25;2.15;;;;;;;21.59;32.90;98087.40;1872454;75;28171;-58
2021/12/02 00:32:19;;;;;;;2.50;2.40;;;;;;;21.58;32.93;98082.50;1865405;75;28105;-56
2021/12/02 00:35:09;;;;;;;2.42;2.33;;;;;;;21.59;32.93;98071.83;1888758;75;28218;-54
2021/12/02 00:38:01;;;;;;;2.40;2.30;;;;;;;21.59;32.89;98069.10;1883180;73;30135;-54
2021/12/02 00:40:50;;;;;;;2.60;2.40;;;;;;;21.62;32.89;98060.39;1895845;73;28023;-59
2021/12/02 00:43:40;;;;;;;2.30;2.20;;;;;;;21.61;32.90;98059.30;1882652;73;28218;-57
2021/12/02 00:46:36;;;;;;;3.20;2.52;;;;;;;21.63;32.86;98053.02;1879604;75;28082;-58
2021/12/02 00:49:20;;;;;;;2.20;2.10;;;;;;;21.62;32.86;98054.92;1876824;75;28119;-57
2021/12/02 00:52:09;;;;;;;2.75;2.30;;;;;;;21.63;32.90;98057.95;1870539;75;28277;-60
2021/12/02 00:54:58;;;;;;;2.12;2.02;;;;;;;21.59;32.92;98055.98;1878032;75;28168;-59
2021/12/02 00:57:48;;;;;;;2.30;2.20;;;;;;;21.61;32.93;98053.27;1886823;75;28257;-60
2021/12/02 01:00:36;;;;;;;4.62;2.27;;;;;;;21.61;32.96;98043.70;1878104;75;28169;-62
2021/12/02 01:03:29;;;;;;;2.40;2.20;;;;;;;21.61;33.00;98049.16;1863877;75;28177;-61
2021/12/02 01:06:18;;;;;;;2.30;2.20;;;;;;;21.64;32.95;98056.84;1870343;75;28238;-59
2021/12/02 01:09:08;;;;;;;2.92;2.30;;;;;;;21.67;32.91;98048.13;1874984;75;28659;-60
2021/12/02 01:11:57;;;;;;;2.62;2.42;;;;;;;21.67;32.91;98044.56;1888619;75;28248;-60
2021/12/02 01:14:46;;;;;;;2.62;2.42;;;;;;;21.65;32.91;98044.02;1874756;75;28095;-60
2021/12/02 01:17:35;;;;;;;2.50;2.30;;;;;;;21.65;32.93;98050.31;1875654;75;28191;-59
2021/12/02 01:20:23;;;;;;;2.40;2.20;;;;;;;21.66;32.92;98051.94;1859571;75;28183;-59
2021/12/02 01:23:13;;;;;;;2.30;2.20;;;;;;;21.66;32.93;98055.20;1871514;75;28199;-60
2021/12/02 01:26:04;;;;;;;2.30;2.20;;;;;;;21.66;32.89;98051.11;1865138;75;28172;-62
2021/12/02 01:28:54;;;;;;;2.40;2.20;;;;;;;21.68;32.89;98043.50;1873671;74;28069;-62
2021/12/02 01:31:44;;;;;;;2.33;2.22;;;;;;;21.67;32.88;98043.20;1861128;74;28148;-60
2021/12/02 01:34:34;;;;;;;2.45;2.30;;;;;;;21.68;32.89;98041.56;1881065;74;28200;-61
2021/12/02 01:37:22;;;;;;;2.50;2.30;;;;;;;21.69;32.89;98047.86;1868822;75;28301;-61
2021/12/02 01:40:12;;;;;;;2.50;2.27;;;;;;;21.70;32.87;98040.78;1857458;75;28134;-60
2021/12/02 01:43:02;;;;;;;2.30;2.20;;;;;;;21.72;32.84;98044.61;1870154;75;28215;-60
2021/12/02 01:45:50;;;;;;;2.20;2.10;;;;;;;21.72;32.83;98039.14;1869524;75;28160;-60
2021/12/02 01:48:41;;;;;;;2.58;2.37;;;;;;;21.74;32.82;98041.89;1864642;75;28264;-59
2021/12/02 01:51:31;;;;;;;2.58;2.30;;;;;;;21.75;32.79;98036.69;1868228;75;28270;-60
2021/12/02 01:54:24;;;;;;;2.40;2.30;;;;;;;21.77;32.77;98031.81;1870362;75;28165;-61
2021/12/02 01:57:25;;;;;;;2.30;2.20;;;;;;;21.79;32.78;98036.46;1858986;75;28149;-60
2021/12/02 02:00:19;;;;;;;2.20;2.10;;;;;;;21.82;32.71;98043.31;1867197;74;28118;-60
2021/12/02 02:03:06;;;;;;;2.45;2.35;;;;;;;21.82;32.73;98033.75;1870358;73;28100;-60
2021/12/02 02:05:57;;;;;;;2.30;2.20;;;;;;;21.83;32.71;98035.37;1862321;75;28086;-61
2021/12/02 02:08:48;;;;;;;2.40;2.30;;;;;;;21.85;32.72;98038.16;1869635;75;28199;-60
2021/12/02 02:11:37;;;;;;;2.33;2.17;;;;;;;21.86;32.71;98036.25;1874591;75;28173;-62
2021/12/02 02:14:29;;;;;;;2.33;2.17;;;;;;;21.88;32.67;98020.41;1877579;75;28153;-60
2021/12/02 02:17:26;;;;;;;2.40;2.30;;;;;;;21.87;32.62;98015.48;1861498;76;28049;-60
2021/12/02 02:20:14;;;;;;;2.43;2.23;;;;;;;21.86;32.65;98019.31;1880626;75;28187;-57
2021/12/02 02:23:08;;;;;;;2.20;2.10;;;;;;;21.88;32.67;98019.03;1885527;75;28109;-57
2021/12/02 02:25:56;;;;;;;2.20;2.10;;;;;;;21.88;32.65;98012.20;1908422;73;28080;-55
2021/12/02 02:28:44;;;;;;;2.30;2.10;;;;;;;21.90;32.65;98001.82;1884125;73;28150;-56
2021/12/02 02:31:36;;;;;;;2.70;2.50;;;;;;;21.92;32.62;97995.00;1867700;75;28238;-60
2021/12/02 02:34:25;;;;;;;2.30;2.20;;;;;;;21.92;32.59;97993.64;1876745;75;28048;-53
2021/12/02 02:37:14;;;;;;;2.30;2.20;;;;;;;21.88;32.65;97995.80;1870913;75;28416;-56
2021/12/02 02:40:10;;;;;;;2.65;2.45;;;;;;;21.84;32.73;97989.23;1882694;75;28102;-56
2021/12/02 02:43:08;;;;;;;2.58;2.37;;;;;;;21.82;32.75;97984.55;1890466;75;28159;-57
2021/12/02 02:45:51;;;;;;;2.40;2.20;;;;;;;21.79;32.77;97979.06;1882571;75;28108;-56
2021/12/02 02:48:41;;;;;;;2.27;2.17;;;;;;;21.79;32.78;97986.44;1877792;75;28153;-52
2021/12/02 02:51:31;;;;;;;2.37;2.17;;;;;;;21.79;32.82;97976.33;1878345;75;28161;-55
2021/12/02 02:54:23;;;;;;;2.90;2.30;;;;;;;21.78;32.83;97973.30;1882465;75;28142;-54
2021/12/02 02:57:16;;;;;;;2.25;2.12;;;;;;;21.77;32.83;97975.78;1868247;75;28203;-55
2021/12/02 03:00:10;;;;;;;2.70;2.20;;;;;;;21.77;32.86;97976.31;1875528;75;28194;-56
2021/12/02 03:03:49;;;;;;;2.50;2.30;;;;;;;21.77;32.86;97973.05;1907009;74;28176;-56
2021/12/02 03:09:01;;;;;;;2.40;2.20;;;;;;;21.74;32.94;97970.83;1887673;74;28160;-52
2021/12/02 03:11:52;;;;;;;2.52;2.33;;;;;;;21.74;32.95;97974.10;1912285;74;28243;-56
2021/12/02 03:17:33;;;;;;;2.80;2.60;;;;;;;21.76;32.93;97967.82;1884440;75;28211;-55
2021/12/02 03:20:23;;;;;;;3.17;2.33;;;;;;;21.77;32.91;97958.55;1884392;75;28141;-56
2021/12/02 03:23:12;;;;;;;2.40;2.20;;;;;;;21.76;32.96;97957.72;1884510;74;28685;-57
2021/12/02 03:26:01;;;;;;;2.60;2.40;;;;;;;21.76;32.93;97949.52;1902165;74;28164;-58
2021/12/02 03:28:52;;;;;;;2.50;2.30;;;;;;;21.77;32.89;97950.34;1906344;74;28182;-56
2021/12/02 03:31:40;;;;;;;2.52;2.33;;;;;;;21.76;32.96;97955.53;1884330;75;28317;-55
2021/12/02 03:34:29;;;;;;;2.65;2.45;;;;;;;21.74;32.95;97953.06;1895393;74;28219;-56
2021/12/02 03:37:18;;;;;;;2.55;2.40;;;;;;;21.75;32.99;97950.59;1898838;74;28175;-54
2021/12/02 03:40:08;;;;;;;2.40;2.30;;;;;;;21.76;32.95;97952.25;1884983;74;28112;-55
2021/12/02 03:42:56;;;;;;;2.50;2.30;;;;;;;21.77;32.95;97963.48;1888643;74;28127;-57
2021/12/02 03:45:45;;;;;;;2.20;2.10;;;;;;;21.78;32.95;97953.34;1904452;74;28104;-55
2021/12/02 03:48:36;;;;;;;2.45;2.35;;;;;;;21.77;32.94;97958.02;1897807;74;28063;-56
2021/12/02 03:51:24;;;;;;;2.50;2.30;;;;;;;21.81;32.91;97959.11;1894860;74;28082;-56
2021/12/02 03:54:12;;;;;;;2.42;2.33;;;;;;;21.79;32.93;97962.66;1895198;74;38464;-55
2021/12/02 03:57:01;;;;;;;2.55;2.12;;;;;;;21.82;32.89;97962.67;1899153;74;28164;-54
2021/12/02 03:59:49;;;;;;;2.60;2.50;;;;;;;21.84;32.90;97967.36;1908003;74;28084;-56
2021/12/02 04:02:37;;;;;;;2.70;2.50;;;;;;;21.84;32.86;97961.33;1895281;74;28115;-58
2021/12/02 04:05:26;;;;;;;2.83;2.50;;;;;;;21.81;32.92;97973.32;1889793;74;28132;-56
2021/12/02 04:08:15;;;;;;;2.50;2.40;;;;;;;21.83;32.91;97970.60;1900244;74;28031;-55
2021/12/02 04:11:55;;;;;;;2.70;2.50;;;;;;;21.82;32.93;97968.94;1912818;74;28091;-54
2021/12/02 04:16:58;;;;;;;2.20;2.10;;;;;;;21.82;32.96;97970.31;1907646;74;28074;-55
2021/12/02 04:19:41;;;;;;;2.47;2.30;;;;;;;21.83;32.92;97965.13;1899984;74;28208;-56
2021/12/02 04:22:29;;;;;;;2.67;2.50;;;;;;;21.84;32.93;97967.36;1896030;74;28074;-56
2021/12/02 04:25:19;;;;;;;2.70;2.50;;;;;;;21.84;32.96;97967.36;1917182;74;28088;-56
2021/12/02 04:28:08;;;;;;;2.60;2.40;;;;;;;21.87;32.92;97968.17;1895836;74;28159;-54
2021/12/02 04:30:57;;;;;;;2.55;2.45;;;;;;;21.84;32.91;97965.42;1888237;74;28168;-56
2021/12/02 04:33:45;;;;;;;2.60;2.40;;;;;;;21.85;32.96;97960.25;1820401;77;35291;-55
2021/12/02 04:36:34;;;;;;;2.80;2.60;;;;;;;21.86;32.95;97966.55;1838016;77;28243;-56
2021/12/02 04:39:23;;;;;;;2.60;2.40;;;;;;;21.85;32.94;97973.92;1826013;77;28408;-55
2021/12/02 04:42:11;;;;;;;2.45;2.35;;;;;;;21.86;32.92;97969.28;1834417;77;28281;-54
2021/12/02 04:44:59;;;;;;;2.50;2.30;;;;;;;21.87;32.90;97967.64;1841141;77;28143;-55
2021/12/02 04:47:48;;;;;;;2.45;2.25;;;;;;;21.86;32.97;97961.91;1838230;77;30288;-56
2021/12/02 04:50:36;;;;;;;2.58;2.37;;;;;;;21.85;32.96;97958.88;1836884;77;28290;-56
2021/12/02 04:53:25;;;;;;;2.60;2.40;;;;;;;21.85;32.99;97953.42;1826083;77;28229;-56
2021/12/02 04:56:14;;;;;;;2.90;2.58;;;;;;;21.89;32.96;97947.69;1845342;77;28374;-53
2021/12/02 04:59:03;;;;;;;2.55;2.45;;;;;;;21.86;32.95;97950.97;1835793;77;28316;-58
2021/12/02 05:01:52;;;;;;;2.60;2.40;;;;;;;21.85;33.00;97951.22;1825852;77;28336;-58
2021/12/02 05:04:40;;;;;;;2.60;2.40;;;;;;;21.89;32.98;97948.25;1876398;75;28145;-57
2021/12/02 05:07:28;;;;;;;2.33;2.23;;;;;;;21.87;32.97;97955.34;1869213;76;28274;-55
2021/12/02 05:10:17;;;;;;;2.37;2.27;;;;;;;21.86;32.99;97956.44;1862525;76;28215;-56
2021/12/02 05:13:05;;;;;;;2.42;2.33;;;;;;;21.85;33.02;97951.22;1882371;75;28075;-56
2021/12/02 05:15:54;;;;;;;2.30;2.20;;;;;;;21.83;33.05;97952.83;1888315;75;28213;-57
2021/12/02 05:18:43;;;;;;;2.40;2.30;;;;;;;21.84;33.04;97952.33;1873061;75;28114;-56
2021/12/02 05:21:32;;;;;;;2.50;2.40;;;;;;;21.86;33.03;97951.52;1890534;75;28102;-57
2021/12/02 05:24:20;;;;;;;2.47;2.30;;;;;;;21.86;33.01;97954.25;1884724;75;28090;-57
2021/12/02 05:27:09;;;;;;;2.52;2.33;;;;;;;21.86;33.01;97952.34;1880198;75;30062;-57
2021/12/02 05:29:57;;;;;;;2.40;2.30;;;;;;;21.88;33.01;97956.99;1889763;75;28252;-57
2021/12/02 05:32:45;;;;;;;2.40;2.20;;;;;;;21.87;33.04;97959.97;1888942;75;28072;-57
2021/12/02 05:35:34;;;;;;;2.22;2.10;;;;;;;21.90;32.97;97966.28;1883067;75;28110;-57
2021/12/02 05:38:24;;;;;;;2.50;2.40;;;;;;;21.87;33.00;97969.00;1892809;75;28216;-55
2021/12/02 05:41:15;;;;;;;2.50;2.30;;;;;;;21.86;33.03;97967.38;1870237;75;28238;-57
2021/12/02 05:44:05;;;;;;;2.45;2.30;;;;;;;21.88;33.00;97965.20;1875107;75;28149;-57
2021/12/02 05:46:54;;;;;;;2.15;2.05;;;;;;;21.88;33.01;97963.00;1882254;75;28127;-56
2021/12/02 05:49:43;;;;;;;2.42;2.22;;;;;;;21.89;32.99;97961.35;1879467;75;28738;-53
2021/12/02 05:52:32;;;;;;;2.30;2.20;;;;;;;21.89;33.03;97959.19;1892423;75;28148;-56
2021/12/02 05:55:22;;;;;;;2.50;2.30;;;;;;;21.88;33.02;97957.53;1886647;75;28032;-57
2021/12/02 05:58:12;;;;;;;2.47;2.37;;;;;;;21.85;33.02;97945.75;1881327;75;36123;-56
2021/12/02 06:01:02;;;;;;;2.30;2.10;;;;;;;21.86;33.06;97945.51;1897624;75;28052;-56
2021/12/02 06:03:51;;;;;;;2.43;2.33;;;;;;;21.88;33.06;97954.26;1873209;75;28133;-56
2021/12/02 06:06:42;;;;;;;2.30;2.10;;;;;;;21.87;33.08;97949.04;1883968;75;28631;-52
2021/12/02 06:09:30;;;;;;;2.25;2.15;;;;;;;21.87;33.08;97947.13;1868844;75;28164;-55
2021/12/02 06:12:19;;;;;;;2.30;2.20;;;;;;;21.87;33.08;97947.67;1873759;75;28178;-53
2021/12/02 06:15:10;;;;;;;2.60;2.40;;;;;;;21.89;33.10;97946.31;1858638;75;28586;-57
2021/12/02 06:18:00;;;;;;;2.40;2.30;;;;;;;21.87;33.09;97958.07;1886158;75;28125;-53
2021/12/02 06:20:53;;;;;;;2.20;2.10;;;;;;;21.87;33.12;97956.70;1868923;75;28033;-55
2021/12/02 06:23:41;;;;;;;2.52;2.37;;;;;;;21.89;33.09;97958.62;1872848;75;28189;-56
2021/12/02 06:26:31;;;;;;;2.30;2.20;;;;;;;21.90;33.04;97956.18;1867448;75;28157;-56
2021/12/02 06:29:20;;;;;;;2.70;2.50;;;;;;;21.89;33.08;97952.36;1884564;75;28190;-54
2021/12/02 06:32:09;;;;;;;2.30;2.20;;;;;;;21.86;33.10;97951.52;1867840;75;28089;-53
2021/12/02 06:34:58;;;;;;;2.40;2.20;;;;;;;21.87;33.12;97951.77;1863542;75;29984;-55
2021/12/02 06:37:47;;;;;;;2.50;2.30;;;;;;;21.86;33.13;97949.61;1880501;75;28129;-55
2021/12/02 06:40:37;;;;;;;2.20;2.10;;;;;;;21.86;33.11;97957.81;1870597;75;28350;-56
2021/12/02 06:43:26;;;;;;;2.25;2.12;;;;;;;21.88;33.10;97954.26;1856996;77;28117;-53
2021/12/02 06:46:14;;;;;;;2.30;2.20;;;;;;;21.85;33.12;97949.31;1895458;75;28101;-55
2021/12/02 06:49:03;;;;;;;2.37;2.27;;;;;;;21.88;33.12;97946.06;1876845;75;32122;-58
2021/12/02 06:51:52;;;;;;;2.20;2.10;;;;;;;21.89;33.11;97948.25;1871688;75;28303;-55
2021/12/02 06:54:41;;;;;;;2.60;2.40;;;;;;;21.88;33.13;97947.42;1879300;75;28129;-54
2021/12/02 06:57:32;;;;;;;2.17;2.08;;;;;;;21.88;33.17;97946.59;1896193;75;28107;-57
2021/12/02 07:00:23;;;;;;;2.40;2.20;;;;;;;21.87;33.20;97945.77;1874683;75;28169;-54
2021/12/02 07:03:11;;;;;;;2.42;2.30;;;;;;;21.86;33.21;97955.08;1870948;75;28136;-57
2021/12/02 07:06:00;;;;;;;2.20;2.00;;;;;;;21.88;33.20;97950.16;1898752;75;28106;-56
2021/12/02 07:08:48;;;;;;;2.52;2.40;;;;;;;21.86;33.26;97949.61;1885654;75;28095;-57
2021/12/02 07:11:37;;;;;;;2.30;2.20;;;;;;;21.84;33.33;97944.92;1883175;75;28183;-56
2021/12/02 07:14:28;;;;;;;2.10;2.00;;;;;;;21.84;33.31;97953.70;1887827;74;28144;-57
2021/12/02 07:17:17;;;;;;;2.25;2.15;;;;;;;21.82;33.38;97956.64;1871592;75;28159;-54
2021/12/02 07:20:08;;;;;;;2.50;2.30;;;;;;;21.83;33.38;97962.94;1876469;75;28117;-52
2021/12/02 07:22:58;;;;;;;2.50;2.30;;;;;;;21.77;33.33;97965.38;1901505;75;28060;-52
2021/12/02 07:25:48;;;;;;;2.58;2.37;;;;;;;21.77;33.32;97965.38;1872837;75;28192;-49
2021/12/02 07:28:37;;;;;;;2.40;2.20;;;;;;;21.75;33.35;97973.03;1890842;75;28168;-46
2021/12/02 07:31:31;;;;;;;2.42;2.20;;;;;;;21.76;33.37;97970.55;1894351;75;28172;-46
2021/12/02 07:34:23;;;;;;;3.37;2.50;;;;;;;21.72;33.37;97975.75;1873910;75;28062;-49
2021/12/02 07:37:14;;;;;;;2.65;2.45;;;;;;;21.69;33.43;97976.27;1881382;75;28036;-48
2021/12/02 07:40:04;;;;;;;2.37;2.20;;;;;;;21.69;33.51;97989.93;1888750;75;28207;-46
2021/12/02 07:42:54;;;;;;;2.50;2.20;;;;;;;21.69;33.48;97989.93;1890864;75;28087;-46
2021/12/02 07:45:42;;;;;;;2.53;2.33;;;;;;;21.70;33.50;98003.06;1868881;75;28220;-47
2021/12/02 07:48:33;;;;;;;2.30;2.10;;;;;;;21.67;33.60;98005.77;1882565;75;28101;-51
2021/12/02 07:51:25;;;;;;;2.33;2.20;;;;;;;21.69;33.69;98004.96;1893168;75;28178;-46
2021/12/02 07:54:17;;;;;;;4.42;2.30;;;;;;;21.66;33.94;98006.84;1881314;75;28194;-48
2021/12/02 07:57:10;;;;;;;2.77;2.10;;;;;;;21.66;34.08;98015.05;1881082;75;28277;-49
2021/12/02 07:59:59;;;;;;;3.02;2.33;;;;;;;21.69;34.19;98012.33;1884084;75;28135;-46
2021/12/02 08:02:50;;;;;;;2.60;2.12;;;;;;;21.64;34.33;98004.92;1879565;75;28111;-44
2021/12/02 08:05:39;;;;;;;3.10;2.20;;;;;;;21.65;34.35;98006.59;1879819;75;28236;-46
2021/12/02 08:08:29;;;;;;;3.75;2.30;;;;;;;21.65;34.41;98007.13;1880699;75;28221;-47
2021/12/02 08:11:17;;;;;;;2.20;2.10;;;;;;;21.64;34.42;98010.39;1883527;75;28112;-51
2021/12/02 08:14:15;;;;;;;2.70;2.08;;;;;;;21.64;34.48;98006.30;1892766;75;28161;-46
2021/12/02 08:16:56;;;;;;;2.75;2.40;;;;;;;21.62;34.50;98007.11;1889899;75;28088;-47
2021/12/02 08:19:45;;;;;;;2.42;2.10;;;;;;;21.61;34.52;98007.38;1887581;75;28095;-47
2021/12/02 08:22:34;;;;;;;4.65;2.30;;;;;;;21.61;34.52;98009.55;1882107;75;28098;-50
2021/12/02 08:25:25;;;;;;;3.05;2.30;;;;;;;21.65;34.50;98012.59;1893746;75;28152;-49
2021/12/02 08:28:13;;;;;;;2.95;2.10;;;;;;;21.62;34.54;98003.01;1898097;75;28055;-47
2021/12/02 08:31:03;;;;;;;2.30;2.10;;;;;;;21.61;34.57;98013.64;1889271;75;28061;-48
2021/12/02 08:33:53;;;;;;;2.15;2.00;;;;;;;21.62;34.58;98012.57;1872184;75;28116;-45
2021/12/02 08:36:49;;;;;;;3.90;2.10;;;;;;;21.64;34.53;98015.03;1868436;76;28207;-47
2021/12/02 08:39:35;;;;;;;3.25;1.90;;;;;;;21.61;34.54;98012.27;1872964;75;28245;-47
2021/12/02 08:42:24;;;;;;;2.50;2.30;;;;;;;21.59;34.59;98015.82;1887199;75;28039;-47
2021/12/02 08:45:14;;;;;;;2.10;1.90;;;;;;;21.62;34.55;98016.67;1886002;75;28030;-49
2021/12/02 08:48:06;;;;;;;2.15;1.90;;;;;;;21.63;34.55;98022.42;1879764;75;28075;-45
2021/12/02 08:50:54;;;;;;;2.30;2.10;;;;;;;21.61;34.52;98019.67;1890625;75;28040;-48
2021/12/02 08:53:43;;;;;;;2.17;2.08;;;;;;;21.64;34.54;98021.86;1886492;75;28148;-48
2021/12/02 08:56:34;;;;;;;2.30;2.10;;;;;;;21.66;34.48;98029.24;1889467;75;28230;-49
2021/12/02 08:59:22;;;;;;;2.97;1.83;;;;;;;21.65;34.62;98031.18;1875176;75;28204;-46
2021/12/02 09:02:11;;;;;;;1.93;1.83;;;;;;;21.65;34.62;98031.18;1878906;75;28187;-47
2021/12/02 09:05:00;;;;;;;2.20;1.90;;;;;;;21.66;34.50;98032.81;1885279;75;28098;-50
2021/12/02 09:07:49;;;;;;;2.17;2.08;;;;;;;21.64;34.50;98029.52;1894041;74;28172;-47
2021/12/02 09:10:38;;;;;;;2.23;2.00;;;;;;;21.65;34.44;98029.81;1911294;74;28097;-47
2021/12/02 09:13:26;;;;;;;2.17;2.00;;;;;;;21.66;34.44;98030.08;1915551;74;28492;-47
2021/12/02 09:16:16;;;;;;;1.90;1.80;;;;;;;21.59;34.42;98026.75;1899910;74;28067;-47
2021/12/02 09:19:04;;;;;;;2.27;2.10;;;;;;;21.61;34.49;98036.87;1907725;74;28449;-47
2021/12/02 09:21:53;;;;;;;2.20;2.10;;;;;;;21.64;34.42;98030.89;1842678;77;28151;-47
2021/12/02 09:24:41;;;;;;;2.00;1.90;;;;;;;21.65;34.42;98038.02;1824596;78;28285;-50
2021/12/02 09:27:30;;;;;;;2.30;2.20;;;;;;;21.64;34.41;98041.81;1824876;78;27889;-47
2021/12/02 09:30:20;;;;;;;2.22;2.08;;;;;;;21.61;34.44;98050.53;1867748;76;28121;-49
2021/12/02 09:33:08;;;;;;;2.20;2.00;;;;;;;21.62;34.47;98049.45;1872915;76;28119;-46
2021/12/02 09:35:56;;;;;;;2.50;2.30;;;;;;;21.63;34.39;98044.83;1828511;77;28135;-46
2021/12/02 09:38:46;;;;;;;2.17;2.03;;;;;;;21.62;34.37;98042.63;1831672;77;28204;-49
2021/12/02 09:41:35;;;;;;;2.53;2.33;;;;;;;21.62;34.39;98039.89;1845368;77;28135;-48
2021/12/02 09:44:23;;;;;;;2.45;2.10;;;;;;;21.64;34.38;98045.91;1836362;77;28369;-46
2021/12/02 09:47:13;;;;;;;2.20;2.08;;;;;;;21.66;34.33;98053.84;1844210;77;28203;-49
2021/12/02 09:50:07;;;;;;;2.60;2.40;;;;;;;21.68;34.31;98055.80;1831816;77;28305;-45
2021/12/02 09:53:05;;;;;;;2.60;2.40;;;;;;;21.69;34.28;98056.88;1837869;77;28328;-49
2021/12/02 09:55:55;;;;;;;2.93;2.73;;;;;;;21.67;34.28;98056.33;1825631;77;28412;-47
2021/12/02 09:58:38;;;;;;;2.97;2.77;;;;;;;21.65;34.28;98049.48;1844014;76;28346;-47
2021/12/02 10:01:39;;;;;;;5.20;2.97;;;;;;;21.65;34.30;98053.05;1840827;77;28280;-47
2021/12/02 10:04:22;;;;;;;2.85;2.65;;;;;;;21.64;34.26;98051.92;1830375;77;28325;-47
2021/12/02 10:07:28;;;;;;;2.98;2.77;;;;;;;21.67;34.22;98052.77;1820974;78;28493;-46
2021/12/02 10:10:25;;;;;;;3.00;2.80;;;;;;;21.69;34.18;98051.95;1793412;78;28288;-46
2021/12/02 10:14:02;;;;;;;2.70;2.37;;;;;;;21.69;34.19;98054.16;1825086;77;28309;-48
2021/12/02 10:16:39;;;;;;;2.85;2.65;;;;;;;21.70;34.14;98049.52;1797578;79;28322;-47
2021/12/02 10:19:28;;;;;;;2.90;2.70;;;;;;;21.67;34.17;98044.56;1819852;77;28361;-45
2021/12/02 10:22:20;;;;;;;3.40;3.10;;;;;;;21.66;34.18;98031.44;1809659;79;28359;-45
2021/12/02 10:25:05;;;;;;;3.30;3.00;;;;;;;21.67;34.17;98026.80;1826649;77;28223;-45
2021/12/02 10:28:06;;;;;;;3.30;3.00;;;;;;;21.71;34.08;98023.28;1809743;79;28269;-48
2021/12/02 10:30:58;;;;;;;3.17;2.92;;;;;;;21.74;34.03;98022.77;1810939;77;28292;-45
2021/12/02 10:33:53;;;;;;;3.43;3.13;;;;;;;21.67;34.04;98003.05;1820349;77;28688;-48
2021/12/02 10:36:44;;;;;;;3.20;3.00;;;;;;;21.71;34.09;98000.59;1824948;77;28243;-46
2021/12/02 10:39:32;;;;;;;3.27;3.00;;;;;;;21.71;34.05;98001.42;1867535;75;28161;-48
2021/12/02 10:42:24;;;;;;;3.52;3.22;;;;;;;21.70;34.06;97983.93;1874977;75;28107;-48
2021/12/02 10:45:26;;;;;;;3.50;3.20;;;;;;;21.68;34.04;97984.17;1882037;75;28169;-48
2021/12/02 10:48:15;;;;;;;3.53;3.20;;;;;;;21.69;34.04;97981.73;1866492;75;28071;-46
2021/12/02 10:51:04;;;;;;;3.37;3.07;;;;;;;21.67;34.04;97974.89;1890992;75;28044;-46
2021/12/02 10:54:07;;;;;;;3.37;3.08;;;;;;;21.67;34.05;97972.98;1867261;75;28247;-47
2021/12/02 10:56:58;;;;;;;3.12;2.92;;;;;;;21.66;33.98;97964.49;1869157;76;28112;-48
2021/12/02 10:59:53;;;;;;;3.10;2.90;;;;;;;21.63;34.05;97978.70;1889407;75;28084;-49
2021/12/02 11:02:48;;;;;;;3.20;3.00;;;;;;;21.64;34.01;97972.67;1867811;75;28092;-48
2021/12/02 11:05:36;;;;;;;3.13;2.93;;;;;;;21.60;34.06;97967.47;1879163;75;28063;-47
2021/12/02 11:08:28;;;;;;;5.97;3.00;;;;;;;21.64;34.03;97962.57;1883467;74;28127;-45
2021/12/02 11:11:23;;;;;;;3.00;2.80;;;;;;;21.61;34.03;97961.73;1878380;76;28203;-49
2021/12/02 11:14:13;;;;;;;3.08;2.87;;;;;;;21.59;34.05;97962.53;1909542;74;28143;-50
2021/12/02 11:17:15;;;;;;;3.30;3.00;;;;;;;21.61;34.04;97965.03;1903951;74;28107;-47
2021/12/02 11:20:07;;;;;;;3.25;2.98;;;;;;;21.64;33.99;97954.38;1897721;74;28134;-45
2021/12/02 11:22:58;;;;;;;3.20;3.00;;;;;;;21.61;33.99;97958.99;1878398;76;28135;-46
2021/12/02 11:25:58;;;;;;;2.92;2.72;;;;;;;21.60;33.99;97949.17;1899438;74;28086;-49
2021/12/02 11:28:48;;;;;;;3.02;2.83;;;;;;;21.60;34.00;97931.95;1888969;74;28077;-46
2021/12/02 11:31:41;;;;;;;3.10;2.80;;;;;;;21.61;33.91;97935.77;1888951;74;28126;-50
2021/12/02 11:34:32;;;;;;;2.77;2.57;;;;;;;21.64;33.93;97939.34;1893713;74;28127;-45
2021/12/02 11:37:21;;;;;;;3.10;2.90;;;;;;;21.66;33.86;97942.63;1878360;76;28241;-46
2021/12/02 11:40:24;;;;;;;2.90;2.70;;;;;;;21.66;33.80;97939.89;1893764;74;28074;-49
2021/12/02 11:43:15;;;;;;;2.70;2.58;;;;;;;21.65;33.85;97947.00;1889283;74;28074;-49
2021/12/02 11:46:07;;;;;;;3.08;2.87;;;;;;;21.66;33.81;97950.00;1900223;74;28137;-48
2021/12/02 11:48:57;;;;;;;3.00;2.80;;;;;;;21.65;33.85;97951.10;1897787;74;28103;-47
2021/12/02 11:51:45;;;;;;;2.98;2.70;;;;;;;21.60;33.85;97949.17;1892162;74;28232;-47
2021/12/02 11:54:34;;;;;;;3.12;2.92;;;;;;;21.61;33.82;97945.33;1900449;74;28033;-45
2021/12/02 11:57:23;;;;;;;3.00;2.80;;;;;;;21.63;33.84;97952.75;1900482;74;28092;-46
2021/12/02 12:00:15;;;;;;;2.90;2.70;;;;;;;21.65;33.82;97954.67;1896939;74;28422;-48
2021/12/02 12:03:27;;;;;;;3.00;2.80;;;;;;;21.68;33.80;97949.22;1891499;74;28121;-47
2021/12/02 12:06:32;;;;;;;2.83;2.63;;;;;;;21.65;33.82;97942.37;1803818;78;28385;-49
2021/12/02 12:09:25;;;;;;;3.02;2.83;;;;;;;21.61;33.81;97929.50;1893859;74;28176;-48
2021/12/02 12:12:14;;;;;;;2.95;2.75;;;;;;;21.65;33.82;97930.61;1900352;74;28144;-45
2021/12/02 12:15:05;;;;;;;3.05;2.85;;;;;;;21.64;33.87;97938.52;1900087;74;28144;-51
2021/12/02 12:17:54;;;;;;;3.60;2.95;;;;;;;21.66;33.82;97931.70;1894725;74;28068;-45
2021/12/02 12:21:04;;;;;;;2.95;2.75;;;;;;;21.66;33.81;97933.06;1889873;74;28161;-46
2021/12/02 12:23:58;;;;;;;2.77;2.58;;;;;;;21.65;33.81;97923.24;1888956;74;28194;-46
2021/12/02 12:26:47;;;;;;;2.70;2.50;;;;;;;21.61;33.87;97919.38;1906049;74;28081;-46
2021/12/02 12:29:35;;;;;;;2.90;2.60;;;;;;;21.60;33.88;97923.21;1890590;74;28116;-48
2021/12/02 12:32:31;;;;;;;3.15;2.95;;;;;;;21.59;33.91;97920.19;1895318;74;28131;-47
2021/12/02 12:36:14;;;;;;;2.90;2.70;;;;;;;21.60;33.89;97930.05;1900029;74;28208;-50
2021/12/02 12:38:22;;;;;;;2.90;2.62;;;;;;;21.60;33.91;97921.02;1894080;74;28296;-48
2021/12/02 12:41:18;;;;;;;2.92;2.72;;;;;;;21.60;33.92;97916.38;1881133;74;28230;-46
2021/12/02 12:44:07;;;;;;;2.77;2.60;;;;;;;21.56;33.98;97915.28;1891418;74;28141;-45
2021/12/02 12:46:56;;;;;;;2.80;2.60;;;;;;;21.55;33.93;97905.42;1891542;74;28050;-47
2021/12/02 12:49:49;;;;;;;2.77;2.58;;;;;;;21.55;33.94;97908.69;1890209;74;28151;-49
2021/12/02 12:52:34;;;;;;;2.70;2.50;;;;;;;21.52;33.97;97906.52;1902097;74;28109;-48
2021/12/02 12:55:24;;;;;;;3.00;2.80;;;;;;;21.52;33.96;97918.80;1893037;74;28270;-51
2021/12/02 12:58:17;;;;;;;2.70;2.50;;;;;;;21.49;33.98;97928.35;1890520;74;28039;-48
2021/12/02 13:01:25;;;;;;;2.80;2.60;;;;;;;21.50;33.97;97923.69;1907504;74;28036;-45
2021/12/02 13:04:17;;;;;;;2.72;2.52;;;;;;;21.52;33.98;97914.14;1888993;74;28523;-50
2021/12/02 13:07:16;;;;;;;2.47;2.37;;;;;;;21.48;33.96;97906.74;1888389;74;28234;-46
2021/12/02 13:10:12;;;;;;;2.60;2.40;;;;;;;21.49;33.95;97909.23;1897857;74;28115;-47
2021/12/02 13:13:03;;;;;;;2.53;2.33;;;;;;;21.48;33.92;97909.47;1895151;74;28129;-46
2021/12/02 13:15:51;;;;;;;2.50;2.30;;;;;;;21.47;33.94;97896.35;1899748;74;28144;-47
2021/12/02 13:18:42;;;;;;;2.60;2.40;;;;;;;21.50;33.90;97899.92;1889026;74;28097;-46
2021/12/02 13:21:34;;;;;;;2.50;2.40;;;;;;;21.53;33.84;97901.31;1909977;74;28115;-48
2021/12/02 13:24:26;;;;;;;2.55;2.40;;;;;;;21.53;33.85;97898.04;1893807;74;28195;-49
2021/12/02 13:27:14;;;;;;;2.60;2.40;;;;;;;21.55;33.85;97895.03;1900530;74;28375;-46
2021/12/02 13:30:06;;;;;;;2.70;2.50;;;;;;;21.53;33.82;97893.94;1900205;74;28261;-48
2021/12/02 13:32:57;;;;;;;2.70;2.50;;;;;;;21.53;33.84;97891.21;1878510;76;28168;-47
2021/12/02 13:35:45;;;;;;;2.50;2.40;;;;;;;21.53;33.87;97886.28;1878131;76;28149;-47